Time;durP1;ratioP1;P1;durP2;ratioP2;P2;SDS_P1;SDS_P2;PMS_P1;PMS_P2;Temp;Humidity;BMP_temperature;BMP_pressure;BME280_temperature;BME280_humidity;BME280_pressure;Samples;Min_cycle;Max_cycle;Signal;HPM_P1;HPM_P2
2022/12/05 06:25:47;;;;;;;19.55;8.93;;;3.70;99.90;;;;;;6209024;22;20439;-85
2022/12/05 06:28:13;;;;;;;23.40;10.77;;;3.40;99.90;;;;;;6204122;23;20941;-85
2022/12/05 06:30:39;;;;;;;19.07;9.43;;;3.60;99.90;;;;;;6233565;23;20271;-86
2022/12/05 06:33:04;;;;;;;23.03;11.67;;;3.70;99.90;;;;;;6209172;23;20147;-86
2022/12/05 06:35:30;;;;;;;25.83;11.00;;;;;;;;;;6204951;23;20628;-86
2022/12/05 06:37:56;;;;;;;20.27;10.60;;;3.80;99.90;;;;;;6190560;23;21201;-87
2022/12/05 06:40:22;;;;;;;26.10;10.90;;;;;;;;;;6225639;23;20418;-85
2022/12/05 06:42:47;;;;;;;30.83;10.77;;;3.90;99.90;;;;;;6199792;23;20149;-85
2022/12/05 06:45:13;;;;;;;24.73;11.60;;;4.00;99.90;;;;;;6196401;23;20767;-86
2022/12/05 06:47:38;;;;;;;25.47;10.73;;;4.10;99.90;;;;;;6201701;23;20659;-86
2022/12/05 06:50:05;;;;;;;19.40;10.50;;;4.00;99.90;;;;;;6210457;23;20197;-82
2022/12/05 06:52:30;;;;;;;25.63;11.48;;;4.00;99.90;;;;;;6182822;23;20150;-82
2022/12/05 06:54:58;;;;;;;22.17;12.70;;;4.10;99.90;;;;;;6181694;23;20216;-82
2022/12/05 06:57:24;;;;;;;21.10;10.57;;;4.20;99.90;;;;;;6180636;23;20154;-83
2022/12/05 06:59:49;;;;;;;24.67;11.87;;;4.20;99.90;;;;;;6182231;23;20154;-82
2022/12/05 07:02:15;;;;;;;22.63;12.20;;;;;;;;;;6184334;23;20153;-83
2022/12/05 07:04:41;;;;;;;20.60;9.93;;;4.30;99.90;;;;;;6184162;23;20203;-82
2022/12/05 07:07:07;;;;;;;28.23;13.63;;;4.20;99.90;;;;;;6185293;23;20381;-82
2022/12/05 07:09:44;;;;;;;23.23;11.63;;;4.00;99.90;;;;;;6182540;23;20236;-83
2022/12/05 07:12:14;;;;;;;26.63;12.13;;;4.00;99.90;;;;;;6183452;23;20141;-82
2022/12/05 07:14:39;;;;;;;35.30;14.45;;;3.80;99.90;;;;;;6183424;23;20219;-83
2022/12/05 07:17:05;;;;;;;28.53;11.93;;;3.80;99.90;;;;;;6185083;23;20142;-82
2022/12/05 07:19:31;;;;;;;26.00;11.73;;;3.80;99.90;;;;;;6184808;23;20141;-82
2022/12/05 07:21:56;;;;;;;21.17;12.10;;;3.80;99.90;;;;;;6184127;23;20146;-82
2022/12/05 07:24:22;;;;;;;26.77;11.90;;;4.10;99.90;;;;;;6185013;23;20539;-85
2022/12/05 07:26:47;;;;;;;27.53;12.30;;;4.00;99.90;;;;;;6182826;23;20184;-83
2022/12/05 07:29:13;;;;;;;29.47;12.77;;;4.20;99.90;;;;;;6184662;23;20153;-82
2022/12/05 07:31:38;;;;;;;20.53;10.60;;;4.30;99.90;;;;;;6185841;23;20176;-82
2022/12/05 07:34:04;;;;;;;21.50;10.83;;;4.20;99.90;;;;;;6185266;23;20212;-83
2022/12/05 07:36:29;;;;;;;19.33;11.00;;;4.30;99.90;;;;;;6183383;23;20169;-83
2022/12/05 07:38:57;;;;;;;31.23;11.90;;;4.40;99.90;;;;;;6180581;23;20567;-83
2022/12/05 07:41:25;;;;;;;25.55;11.77;;;4.50;99.90;;;;;;6181644;23;20172;-83
2022/12/05 07:43:51;;;;;;;22.48;10.13;;;4.50;99.90;;;;;;6179769;23;20675;-82
2022/12/05 07:46:18;;;;;;;24.73;11.52;;;4.50;99.90;;;;;;6182125;23;20248;-84
2022/12/05 07:48:44;;;;;;;25.90;12.60;;;4.60;99.90;;;;;;6179518;23;20177;-83
2022/12/05 07:51:10;;;;;;;24.90;11.20;;;4.50;99.90;;;;;;6152031;23;20246;-82
2022/12/05 07:53:37;;;;;;;27.02;11.93;;;4.40;99.90;;;;;;6125433;23;20162;-82
2022/12/05 07:56:05;;;;;;;24.88;11.95;;;4.40;99.90;;;;;;6126073;23;20185;-85
2022/12/05 07:58:32;;;;;;;19.48;11.18;;;4.50;99.90;;;;;;6153065;23;20151;-83
2022/12/05 08:01:08;;;;;;;26.50;11.48;;;4.40;99.90;;;;;;6127557;23;20584;-82
2022/12/05 08:03:36;;;;;;;29.73;11.57;;;4.40;99.90;;;;;;6124161;23;20161;-83
2022/12/05 08:06:03;;;;;;;24.42;11.00;;;4.50;99.90;;;;;;6153191;23;20170;-85
2022/12/05 08:08:29;;;;;;;24.15;11.88;;;4.40;99.90;;;;;;6126689;23;20155;-85
2022/12/05 08:10:55;;;;;;;21.23;11.60;;;4.40;99.90;;;;;;6153422;23;20558;-85
2022/12/05 08:13:20;;;;;;;24.17;11.90;;;4.40;99.90;;;;;;6152538;23;20159;-85
2022/12/05 08:15:46;;;;;;;28.57;13.43;;;4.50;99.90;;;;;;6153286;23;20190;-85
2022/12/05 08:18:11;;;;;;;29.03;10.97;;;4.50;99.90;;;;;;6125702;23;20202;-83
2022/12/05 08:20:37;;;;;;;20.70;9.27;;;4.50;99.90;;;;;;6153399;23;20217;-82
2022/12/05 08:23:02;;;;;;;29.93;11.60;;;4.50;99.90;;;;;;6151457;23;20150;-84
2022/12/05 08:25:28;;;;;;;21.50;11.23;;;4.60;99.90;;;;;;6151601;23;20198;-85
2022/12/05 08:27:53;;;;;;;30.53;11.47;;;4.60;99.90;;;;;;6151699;23;20165;-81
2022/12/05 08:30:19;;;;;;;21.87;11.83;;;5.00;99.90;;;;;;6153005;23;20530;-83
2022/12/05 08:32:45;;;;;;;23.13;12.97;;;5.00;99.90;;;;;;6153529;23;20150;-84
2022/12/05 08:35:10;;;;;;;21.57;11.80;;;5.20;99.90;;;;;;6126427;23;20217;-84
2022/12/05 08:37:36;;;;;;;29.87;13.17;;;5.20;99.90;;;;;;6124024;23;20525;-83
2022/12/05 08:40:02;;;;;;;53.90;22.17;;;5.20;99.90;;;;;;6127044;23;20656;-84
2022/12/05 08:42:27;;;;;;;40.42;16.65;;;5.10;99.90;;;;;;6124728;23;20138;-83
2022/12/05 08:44:53;;;;;;;28.60;13.87;;;5.20;99.90;;;;;;6124769;23;20229;-85
2022/12/05 08:47:18;;;;;;;23.37;11.90;;;5.20;99.90;;;;;;6151913;23;20178;-84
2022/12/05 08:49:44;;;;;;;24.53;11.13;;;5.30;99.90;;;;;;6151177;23;20166;-85
2022/12/05 08:52:09;;;;;;;20.27;11.03;;;5.30;99.90;;;;;;6151493;23;20205;-85
2022/12/05 08:54:35;;;;;;;24.80;11.60;;;5.30;99.90;;;;;;6153869;23;20197;-85
2022/12/05 08:57:01;;;;;;;29.70;11.90;;;;;;;;;;6152557;23;20593;-85
2022/12/05 08:59:26;;;;;;;21.10;11.40;;;5.40;99.90;;;;;;6125130;23;20157;-85
2022/12/05 09:01:52;;;;;;;26.60;12.07;;;;;;;;;;6153879;23;20456;-85
2022/12/05 09:04:18;;;;;;;27.17;11.68;;;5.30;99.90;;;;;;6153638;23;20139;-85
2022/12/05 09:06:44;;;;;;;24.97;13.30;;;5.30;99.90;;;;;;6151981;23;20157;-85
2022/12/05 09:09:10;;;;;;;26.40;11.97;;;5.40;99.90;;;;;;6151762;23;20150;-84
2022/12/05 09:11:40;;;;;;;26.15;13.23;;;5.40;99.90;;;;;;6124066;23;20163;-84
2022/12/05 09:14:05;;;;;;;31.42;14.70;;;5.50;99.90;;;;;;6151306;23;20206;-85
2022/12/05 09:16:34;;;;;;;31.43;13.47;;;5.50;99.90;;;;;;6154006;23;20174;-84
2022/12/05 09:18:59;;;;;;;25.75;12.25;;;5.50;99.90;;;;;;6151172;23;20163;-84
2022/12/05 09:21:28;;;;;;;28.53;14.13;;;5.50;99.90;;;;;;6154432;23;20150;-84
2022/12/05 09:23:54;;;;;;;28.45;13.48;;;5.40;99.90;;;;;;6152787;23;20541;-83
2022/12/05 09:26:23;;;;;;;29.63;12.85;;;5.60;99.90;;;;;;6151834;23;20249;-84
2022/12/05 09:28:49;;;;;;;26.60;12.63;;;5.70;99.90;;;;;;6148424;23;20157;-82
2022/12/05 09:31:17;;;;;;;29.17;13.23;;;5.80;99.90;;;;;;6152885;23;20737;-83
2022/12/05 09:33:43;;;;;;;26.25;12.13;;;5.70;99.90;;;;;;6126141;23;20178;-82
2022/12/05 09:36:16;;;;;;;25.63;12.63;;;5.50;99.90;;;;;;6128898;23;20607;-82
2022/12/05 09:38:42;;;;;;;24.35;12.43;;;5.20;99.90;;;;;;6153854;23;20150;-85
2022/12/05 09:41:13;;;;;;;26.07;13.80;;;5.00;99.90;;;;;;6127832;23;20161;-82
2022/12/05 09:43:56;;;;;;;27.95;12.88;;;5.00;99.90;;;;;;6153530;23;20151;-83
2022/12/05 09:46:35;;;;;;;46.40;21.00;;;4.90;99.90;;;;;;6126907;23;20182;-83
2022/12/05 09:49:03;;;;;;;28.52;13.35;;;5.00;99.90;;;;;;6127438;23;20489;-83
2022/12/05 09:51:29;;;;;;;23.75;13.30;;;5.10;99.90;;;;;;6154211;23;20150;-82
2022/12/05 09:53:55;;;;;;;27.80;13.05;;;5.10;99.90;;;;;;6153075;23;20698;-83
2022/12/05 09:56:29;;;;;;;26.30;13.20;;;5.20;99.90;;;;;;6153469;23;20433;-82
2022/12/05 09:58:57;;;;;;;23.60;13.40;;;5.30;99.90;;;;;;6152297;23;20233;-82
2022/12/05 10:01:41;;;;;;;25.60;13.00;;;5.40;99.90;;;;;;6152818;23;20182;-82
2022/12/05 10:04:12;;;;;;;35.35;14.52;;;5.50;99.90;;;;;;6152600;23;20138;-83
2022/12/05 10:07:10;;;;;;;27.38;13.57;;;5.50;99.90;;;;;;6152568;23;20170;-84
2022/12/05 10:09:59;;;;;;;29.13;13.10;;;5.50;99.90;;;;;;6059942;23;20185;-85
2022/12/05 10:12:43;;;;;;;20.85;11.20;;;5.30;99.90;;;;;;6133563;23;20484;-85
2022/12/05 10:15:37;;;;;;;24.63;12.77;;;5.30;99.90;;;;;;6152670;23;20738;-85
2022/12/05 10:18:08;;;;;;;24.80;11.90;;;5.10;99.90;;;;;;6152066;23;20225;-84
2022/12/05 10:20:51;;;;;;;32.30;12.73;;;5.10;99.90;;;;;;6153162;23;20556;-85
2022/12/05 10:23:37;;;;;;;23.33;13.13;;;5.20;99.90;;;;;;6153763;23;20139;-84
2022/12/05 10:26:08;;;;;;;23.30;13.95;;;5.40;99.90;;;;;;6125762;23;20174;-84
2022/12/05 10:28:40;;;;;;;27.05;13.60;;;5.60;99.90;;;;;;6151789;23;20227;-84
2022/12/05 10:31:11;;;;;;;29.15;13.07;;;5.70;99.90;;;;;;6129085;23;20150;-84
2022/12/05 10:33:43;;;;;;;29.42;13.55;;;5.90;99.90;;;;;;6152869;23;20135;-84
2022/12/05 10:36:11;;;;;;;29.65;13.63;;;6.10;99.90;;;;;;6152597;23;20301;-84
2022/12/05 10:38:37;;;;;;;26.75;15.02;;;6.30;99.90;;;;;;6152265;23;20149;-84
2022/12/05 10:41:06;;;;;;;29.58;14.90;;;6.40;99.90;;;;;;6128018;23;20154;-85
2022/12/05 10:43:35;;;;;;;25.45;14.35;;;6.30;99.90;;;;;;6154078;23;20135;-84
2022/12/05 10:46:02;;;;;;;29.05;15.68;;;6.20;99.90;;;;;;6126797;23;20186;-84
2022/12/05 10:48:30;;;;;;;35.78;17.70;;;6.20;99.90;;;;;;6151492;23;20150;-83
2022/12/05 10:50:57;;;;;;;29.08;14.75;;;6.20;99.90;;;;;;6151184;23;20162;-84
2022/12/05 10:53:25;;;;;;;19.95;10.23;;;6.00;99.90;;;;;;6151330;23;20154;-84
2022/12/05 10:55:52;;;;;;;32.67;12.15;;;5.70;99.90;;;;;;6150640;23;20186;-84
2022/12/05 10:58:24;;;;;;;28.65;13.18;;;5.60;99.90;;;;;;6152147;23;20180;-84
2022/12/05 11:00:54;;;;;;;23.95;13.35;;;5.60;99.90;;;;;;6152934;23;20139;-84
2022/12/05 11:03:39;;;;;;;29.13;13.18;;;5.70;99.90;;;;;;6126204;23;20178;-84
2022/12/05 11:06:17;;;;;;;22.38;12.05;;;5.50;99.90;;;;;;6124542;23;20178;-83
2022/12/05 11:08:51;;;;;;;21.92;12.23;;;5.60;99.90;;;;;;6151842;23;20150;-83
2022/12/05 11:11:22;;;;;;;21.23;11.70;;;5.60;99.90;;;;;;6151549;23;20135;-83
2022/12/05 11:13:59;;;;;;;19.70;12.13;;;5.60;99.90;;;;;;6152248;23;20519;-83
2022/12/05 11:16:31;;;;;;;24.20;12.40;;;5.50;99.90;;;;;;6151454;23;20174;-82
2022/12/05 11:19:30;;;;;;;25.45;11.93;;;5.40;99.90;;;;;;6151081;23;20425;-84
2022/12/05 11:21:56;;;;;;;30.35;11.85;;;5.30;99.90;;;;;;6126458;23;20147;-82
2022/12/05 11:24:32;;;;;;;24.65;11.20;;;5.40;99.90;;;;;;6151587;23;20177;-83
2022/12/05 11:27:19;;;;;;;26.48;13.05;;;5.40;99.90;;;;;;6126462;23;20503;-82
2022/12/05 11:29:56;;;;;;;29.17;12.57;;;5.50;99.90;;;;;;6126388;23;20139;-83
2022/12/05 11:32:27;;;;;;;31.00;14.45;;;5.50;99.90;;;;;;6154334;23;20178;-83
2022/12/05 11:35:07;;;;;;;31.17;14.05;;;5.50;99.90;;;;;;6152944;23;20228;-83
2022/12/05 11:37:52;;;;;;;29.45;13.43;;;5.70;99.90;;;;;;6152605;23;20135;-83
2022/12/05 11:40:36;;;;;;;31.85;14.52;;;5.80;99.90;;;;;;6154425;23;20135;-83
2022/12/05 11:43:20;;;;;;;36.33;18.63;;;5.80;99.90;;;;;;6126843;23;20151;-82
2022/12/05 11:45:57;;;;;;;40.42;19.73;;;6.30;99.90;;;;;;6155418;23;20170;-83
2022/12/05 11:48:47;;;;;;;31.42;19.10;;;6.30;99.90;;;;;;6154453;23;20146;-83
2022/12/05 11:51:24;;;;;;;27.33;15.38;;;6.60;99.90;;;;;;6127503;23;20242;-83
2022/12/05 11:54:20;;;;;;;25.67;13.57;;;6.70;99.90;;;;;;6152385;23;20149;-83
2022/12/05 11:57:20;;;;;;;29.00;14.70;;;6.90;99.90;;;;;;6145944;23;20580;-83
2022/12/05 12:00:14;;;;;;;25.52;12.93;;;7.00;99.90;;;;;;6125539;23;20151;-83
2022/12/05 12:03:08;;;;;;;26.90;14.35;;;7.20;99.90;;;;;;6155153;23;20374;-82
2022/12/05 12:05:52;;;;;;;26.15;12.10;;;7.20;99.90;;;;;;6129106;23;20204;-83
2022/12/05 12:08:23;;;;;;;28.30;12.43;;;7.30;99.90;;;;;;6155016;23;20150;-83
2022/12/05 12:11:00;;;;;;;21.73;12.52;;;7.20;99.90;;;;;;6153299;23;20158;-83
2022/12/05 12:13:41;;;;;;;19.33;11.68;;;7.30;99.90;;;;;;6155276;23;20536;-83
2022/12/05 12:16:34;;;;;;;21.80;12.15;;;7.60;99.90;;;;;;6156610;23;20525;-82
2022/12/05 12:19:27;;;;;;;26.40;13.43;;;7.60;99.90;;;;;;6154480;23;20158;-83
2022/12/05 12:22:10;;;;;;;21.88;12.35;;;7.40;99.90;;;;;;6153042;23;20135;-82
2022/12/05 12:25:01;;;;;;;25.35;12.07;;;7.40;99.90;;;;;;6153491;23;20153;-83
2022/12/05 12:27:53;;;;;;;24.02;12.30;;;7.40;99.90;;;;;;6127953;23;20193;-83
2022/12/05 12:30:19;;;;;;;19.85;13.20;;;;;;;;;;6182003;23;20207;-88
2022/12/05 12:32:45;;;;;;;19.13;11.37;;;;;;;;;;6210663;23;20658;-88
2022/12/05 12:35:17;;;;;;;21.00;11.40;;;6.90;99.90;;;;;;6210905;23;20853;-87
2022/12/05 12:38:27;;;;;;;19.80;11.65;;;8.80;99.90;;;;;;6206398;23;21158;-89
2022/12/05 12:40:57;;;;;;;22.67;12.50;;;6.70;99.90;;;;;;6205446;23;20802;-87
2022/12/05 12:43:38;;;;;;;25.13;13.35;;;6.60;99.90;;;;;;6206492;23;20141;-87
2022/12/05 12:46:30;;;;;;;22.40;11.13;;;6.60;99.90;;;;;;6207906;23;20159;-89
2022/12/05 12:49:21;;;;;;;24.63;11.55;;;6.60;99.90;;;;;;6220943;23;20133;-85
2022/12/05 12:51:52;;;;;;;21.33;11.90;;;6.70;99.90;;;;;;6209420;23;20667;-88
2022/12/05 12:54:57;;;;;;;23.80;13.02;;;6.70;99.90;;;;;;6217282;23;20201;-79
2022/12/05 12:57:47;;;;;;;18.95;10.65;;;6.70;99.90;;;;;;6228917;23;20145;-79
2022/12/05 13:00:35;;;;;;;19.85;11.30;;;6.50;99.90;;;;;;6227128;23;20169;-79
2022/12/05 13:03:12;;;;;;;19.13;10.93;;;6.50;99.90;;;;;;6225048;23;20217;-78
2022/12/05 13:05:42;;;;;;;21.90;12.10;;;6.40;99.90;;;;;;6229362;23;20141;-79
2022/12/05 13:08:25;;;;;;;21.77;10.23;;;6.30;99.90;;;;;;6223280;23;20663;-80
2022/12/05 13:10:52;;;;;;;17.98;10.98;;;6.20;99.90;;;;;;6210082;23;20188;-79
2022/12/05 13:13:25;;;;;;;24.02;11.60;;;6.20;99.90;;;;;;6209382;23;20680;-79
2022/12/05 13:15:54;;;;;;;23.33;10.75;;;6.20;99.90;;;;;;6211554;23;20173;-80
2022/12/05 13:18:22;;;;;;;22.08;11.93;;;6.10;99.90;;;;;;6211222;23;20886;-81
2022/12/05 13:20:56;;;;;;;18.75;10.25;;;6.20;99.90;;;;;;6211817;23;20781;-81
2022/12/05 13:23:27;;;;;;;26.65;11.40;;;6.10;99.90;;;;;;6208229;23;20447;-80
2022/12/05 13:25:55;;;;;;;18.30;10.70;;;6.00;99.90;;;;;;6209648;23;20172;-81
2022/12/05 13:28:24;;;;;;;18.73;10.20;;;6.10;99.90;;;;;;6211448;23;20148;-84
2022/12/05 13:33:49;;;;;;;23.85;11.57;;;6.20;99.90;;;;;;6187292;23;20160;-82
2022/12/05 13:42:28;;;;;;;23.73;12.05;;;6.10;99.90;;;;;;6208109;23;20560;-81
2022/12/05 13:44:57;;;;;;;19.98;11.10;;;6.00;99.90;;;;;;6209634;23;20252;-80
2022/12/05 13:47:46;;;;;;;17.50;10.95;;;6.00;99.90;;;;;;6208995;23;20288;-81
2022/12/05 13:50:18;;;;;;;23.08;11.50;;;5.90;99.90;;;;;;6210794;23;20184;-82
2022/12/05 13:52:59;;;;;;;23.15;12.40;;;5.70;99.90;;;;;;6206699;23;20204;-83
2022/12/05 13:55:37;;;;;;;20.90;11.77;;;5.80;99.90;;;;;;6207624;23;20224;-82
2022/12/05 13:58:15;;;;;;;22.42;11.77;;;5.70;99.90;;;;;;6202720;23;20211;-83
2022/12/05 14:00:40;;;;;;;24.88;12.45;;;5.70;99.90;;;;;;6206453;23;20168;-84
2022/12/05 14:03:20;;;;;;;25.03;13.70;;;5.70;99.90;;;;;;6209292;23;20195;-82
2022/12/05 14:05:52;;;;;;;20.05;11.90;;;5.80;99.90;;;;;;6208997;23;20149;-79
2022/12/05 14:08:29;;;;;;;23.75;12.55;;;5.80;99.90;;;;;;6206770;23;20146;-80
2022/12/05 14:10:55;;;;;;;23.25;11.95;;;5.80;99.90;;;;;;6209650;23;20240;-83
2022/12/05 14:13:20;;;;;;;27.13;13.57;;;5.80;99.90;;;;;;6209677;23;20600;-83
2022/12/05 14:15:48;;;;;;;24.03;13.80;;;5.80;99.90;;;;;;6206887;23;20188;-81
2022/12/05 14:18:17;;;;;;;17.13;10.13;;;5.90;99.90;;;;;;6210088;23;20372;-81
2022/12/05 14:20:52;;;;;;;24.77;13.65;;;5.70;99.90;;;;;;6209245;23;20199;-82
2022/12/05 14:23:33;;;;;;;27.08;14.38;;;5.50;99.90;;;;;;6209675;23;20117;-79
2022/12/05 14:26:12;;;;;;;34.55;18.58;;;5.50;99.90;;;;;;6209802;23;20149;-82
2022/12/05 14:29:00;;;;;;;26.58;14.30;;;5.40;99.90;;;;;;6203756;23;20149;-81
2022/12/05 14:31:42;;;;;;;24.77;14.52;;;5.40;99.90;;;;;;6206661;23;20163;-80
2022/12/05 14:34:21;;;;;;;25.05;12.90;;;5.50;99.90;;;;;;6211202;23;20168;-82
2022/12/05 14:37:06;;;;;;;29.98;13.93;;;5.40;99.90;;;;;;6205062;23;20170;-81
2022/12/05 14:39:44;;;;;;;20.35;11.77;;;5.40;99.90;;;;;;6208959;23;20177;-81
2022/12/05 14:42:22;;;;;;;28.33;13.50;;;5.30;99.90;;;;;;6210473;23;20219;-83
2022/12/05 14:44:50;;;;;;;23.23;12.20;;;5.30;99.90;;;;;;6206477;23;20147;-81
2022/12/05 14:47:23;;;;;;;22.63;11.70;;;5.20;99.90;;;;;;6209469;23;20236;-82
2022/12/05 14:49:53;;;;;;;26.13;12.65;;;5.30;99.90;;;;;;6211315;23;20173;-81
2022/12/05 14:52:22;;;;;;;25.08;15.07;;;5.30;99.90;;;;;;6210573;23;20476;-80
2022/12/05 14:54:51;;;;;;;26.52;12.85;;;5.30;99.90;;;;;;6208407;23;20188;-83
2022/12/05 14:57:18;;;;;;;25.08;14.05;;;5.20;99.90;;;;;;6211449;23;20677;-79
2022/12/05 15:00:05;;;;;;;27.70;13.25;;;5.30;99.90;;;;;;6209419;23;20515;-79
2022/12/05 15:02:35;;;;;;;24.55;12.75;;;5.30;99.90;;;;;;6203766;23;20138;-82
2022/12/05 15:05:21;;;;;;;23.42;13.43;;;5.30;99.90;;;;;;6206331;23;20167;-80
2022/12/05 15:07:49;;;;;;;26.60;14.32;;;5.30;99.90;;;;;;6209492;23;20211;-80
2022/12/05 15:10:20;;;;;;;30.38;14.35;;;5.40;99.90;;;;;;6207274;23;20670;-80
2022/12/05 15:12:56;;;;;;;23.45;13.70;;;5.40;99.90;;;;;;6205702;23;20193;-82
2022/12/05 15:15:35;;;;;;;23.02;13.75;;;5.50;99.90;;;;;;6207181;23;20180;-80
2022/12/05 15:18:19;;;;;;;26.02;12.88;;;5.50;99.90;;;;;;6209363;23;20155;-82
2022/12/05 15:21:08;;;;;;;32.35;13.63;;;5.30;99.90;;;;;;6211065;23;20169;-82
2022/12/05 15:23:41;;;;;;;21.30;12.15;;;5.30;99.90;;;;;;6166223;23;20157;-84
2022/12/05 15:26:26;;;;;;;22.83;13.45;;;5.20;99.90;;;;;;6213797;23;20137;-83
2022/12/05 15:29:12;;;;;;;22.98;12.38;;;5.10;99.90;;;;;;6213192;23;20140;-80
2022/12/05 15:31:45;;;;;;;21.60;12.13;;;5.00;99.90;;;;;;6215166;23;20153;-82
2022/12/05 15:34:17;;;;;;;23.02;13.55;;;4.90;99.90;;;;;;6210958;23;20197;-82
2022/12/05 15:37:01;;;;;;;21.13;12.15;;;4.90;99.90;;;;;;6215179;23;20133;-81
2022/12/05 15:39:27;;;;;;;22.60;12.57;;;5.00;99.90;;;;;;6219269;23;20440;-79
2022/12/05 15:41:55;;;;;;;28.23;12.90;;;4.90;99.90;;;;;;6228794;23;20253;-79
2022/12/05 15:44:22;;;;;;;23.70;13.13;;;4.90;99.90;;;;;;6227874;23;20164;-75
2022/12/05 15:46:52;;;;;;;23.70;11.88;;;4.90;99.90;;;;;;6231278;23;20267;-80
2022/12/05 15:49:26;;;;;;;30.73;13.13;;;4.90;99.90;;;;;;6223438;23;20195;-80
2022/12/05 15:51:57;;;;;;;26.70;12.50;;;4.90;99.90;;;;;;6232978;23;20138;-79
2022/12/05 15:54:31;;;;;;;25.95;13.57;;;4.90;99.90;;;;;;6232079;23;20442;-80
2022/12/05 15:57:08;;;;;;;23.88;11.38;;;4.80;99.90;;;;;;6228998;23;20137;-82
2022/12/05 15:59:41;;;;;;;21.65;12.40;;;4.80;99.90;;;;;;6230972;23;20184;-80
2022/12/05 16:02:18;;;;;;;22.63;12.43;;;4.90;99.90;;;;;;6231448;23;20141;-80
2022/12/05 16:04:56;;;;;;;24.92;11.93;;;4.90;99.90;;;;;;6228255;23;20156;-81
2022/12/05 16:07:25;;;;;;;21.20;10.82;;;4.90;99.90;;;;;;6229278;23;20200;-76
2022/12/05 16:09:55;;;;;;;21.92;11.32;;;4.90;99.90;;;;;;6226041;23;20165;-79
2022/12/05 16:12:31;;;;;;;21.60;11.88;;;4.80;99.90;;;;;;6230653;23;20195;-80
2022/12/05 16:15:01;;;;;;;25.35;12.23;;;4.80;99.90;;;;;;6223748;23;20187;-76
2022/12/05 16:17:29;;;;;;;20.20;11.70;;;4.80;99.90;;;;;;6230682;23;20145;-78
2022/12/05 16:20:15;;;;;;;35.97;15.50;;;4.70;99.90;;;;;;6228766;23;20204;-77
2022/12/05 16:22:46;;;;;;;28.42;14.95;;;4.60;99.90;;;;;;6231369;23;20144;-77
2022/12/05 16:25:21;;;;;;;30.92;14.45;;;4.50;99.90;;;;;;6232350;23;20612;-80
2022/12/05 16:28:02;;;;;;;22.42;11.98;;;4.40;99.90;;;;;;6230990;23;20149;-77
2022/12/05 16:30:29;;;;;;;19.60;11.77;;;4.40;99.90;;;;;;6222031;23;20507;-80
2022/12/05 16:33:02;;;;;;;25.73;12.02;;;4.30;99.90;;;;;;6224709;23;20153;-79
2022/12/05 16:35:40;;;;;;;22.05;11.77;;;4.20;99.90;;;;;;6221985;23;20169;-81
2022/12/05 16:38:28;;;;;;;22.55;13.00;;;4.20;99.90;;;;;;6223292;23;20143;-81
2022/12/05 16:40:55;;;;;;;18.73;12.15;;;4.20;99.90;;;;;;6221018;23;20161;-79
2022/12/05 16:43:44;;;;;;;24.15;13.50;;;4.30;99.90;;;;;;6219439;23;20148;-77
2022/12/05 16:46:12;;;;;;;23.38;12.85;;;4.30;99.90;;;;;;6227777;23;20138;-79
2022/12/05 16:48:43;;;;;;;18.95;12.90;;;4.40;99.90;;;;;;6229018;23;20172;-78
2022/12/05 16:51:18;;;;;;;25.65;12.73;;;4.40;99.90;;;;;;6229905;23;20216;-78
2022/12/05 16:53:47;;;;;;;30.63;16.17;;;4.30;99.90;;;;;;6231388;23;20182;-78
2022/12/05 16:56:24;;;;;;;23.50;11.68;;;4.20;99.90;;;;;;6221993;23;20173;-78
2022/12/05 16:58:50;;;;;;;16.67;8.50;;;4.20;99.90;;;;;;6219421;23;20155;-82
2022/12/05 17:01:23;;;;;;;11.83;8.00;;;4.20;99.90;;;;;;6226809;23;20165;-83
2022/12/05 17:03:49;;;;;;;15.80;8.38;;;4.20;99.90;;;;;;6223051;23;20551;-79
2022/12/05 17:06:14;;;;;;;16.20;8.50;;;4.20;99.90;;;;;;6223426;23;20552;-80
2022/12/05 17:08:41;;;;;;;13.00;6.70;;;4.20;99.90;;;;;;6220478;23;20372;-79
2022/12/05 17:11:16;;;;;;;12.10;7.43;;;4.30;99.90;;;;;;6221743;23;20396;-83
2022/12/05 17:13:43;;;;;;;10.52;7.00;;;4.30;99.90;;;;;;6222681;23;20133;-81
2022/12/05 17:16:09;;;;;;;10.18;6.47;;;4.30;99.90;;;;;;6221740;23;20731;-77
2022/12/05 17:18:35;;;;;;;12.40;7.00;;;4.30;99.90;;;;;;6223051;23;20472;-78
2022/12/05 17:21:01;;;;;;;16.13;7.30;;;4.40;99.90;;;;;;6221901;23;20240;-81
2022/12/05 17:23:26;;;;;;;9.30;5.65;;;4.40;99.90;;;;;;6222305;23;20709;-79
2022/12/05 17:25:55;;;;;;;11.10;7.10;;;4.40;99.90;;;;;;6223860;23;20153;-82
2022/12/05 17:28:22;;;;;;;13.27;7.80;;;4.50;99.90;;;;;;6211315;23;20248;-80
2022/12/05 17:30:48;;;;;;;14.13;8.43;;;4.60;99.90;;;;;;6210895;23;20595;-81
2022/12/05 17:33:16;;;;;;;14.20;9.37;;;4.60;99.90;;;;;;6206142;23;20654;-81
2022/12/05 17:35:42;;;;;;;15.25;9.82;;;4.60;99.90;;;;;;6209433;23;20821;-81
2022/12/05 17:38:09;;;;;;;17.98;13.25;;;4.70;99.90;;;;;;6204559;23;20157;-83
2022/12/05 17:40:36;;;;;;;18.65;13.32;;;4.70;99.90;;;;;;6221813;23;20516;-80
2022/12/05 17:43:02;;;;;;;17.25;11.65;;;4.70;99.90;;;;;;6201674;23;20141;-80
2022/12/05 17:45:28;;;;;;;29.23;15.90;;;4.70;99.90;;;;;;6205103;23;20141;-82
2022/12/05 17:47:56;;;;;;;12.73;8.77;;;4.60;99.90;;;;;;6205214;23;20149;-80
2022/12/05 17:50:23;;;;;;;15.27;9.23;;;4.60;99.90;;;;;;6199710;23;20607;-82
2022/12/05 17:52:49;;;;;;;19.33;13.43;;;4.50;99.90;;;;;;6198937;23;20671;-80
2022/12/05 17:55:22;;;;;;;18.42;14.02;;;4.50;99.90;;;;;;6208560;23;20188;-82
2022/12/05 17:57:48;;;;;;;20.83;13.55;;;4.50;99.90;;;;;;6205055;23;20160;-81
2022/12/05 18:00:16;;;;;;;13.77;7.97;;;4.60;99.90;;;;;;6207282;23;20208;-79
2022/12/05 18:02:43;;;;;;;14.85;8.68;;;4.60;99.90;;;;;;6210413;23;20141;-85
2022/12/05 18:05:10;;;;;;;9.20;7.00;;;4.70;99.90;;;;;;6209540;23;20141;-83
2022/12/05 18:07:37;;;;;;;9.52;6.97;;;4.70;99.90;;;;;;6209573;23;20145;-82
2022/12/05 18:10:07;;;;;;;13.32;7.93;;;4.70;99.90;;;;;;6209098;23;20188;-80
2022/12/05 18:12:33;;;;;;;12.02;8.40;;;4.80;99.90;;;;;;6210159;23;20134;-80
2022/12/05 18:14:59;;;;;;;27.87;15.50;;;4.70;99.90;;;;;;6209298;23;20175;-81
2022/12/05 18:17:25;;;;;;;8.13;5.80;;;4.50;99.90;;;;;;6210294;23;20530;-81
2022/12/05 18:19:54;;;;;;;8.95;4.70;;;4.50;99.90;;;;;;6207418;23;20179;-81
2022/12/05 18:22:20;;;;;;;6.75;3.05;;;4.50;99.90;;;;;;6208458;23;20143;-80
2022/12/05 18:24:45;;;;;;;5.97;4.17;;;4.50;99.90;;;;;;6210423;23;20145;-83
2022/12/05 18:27:11;;;;;;;6.70;4.00;;;4.50;99.90;;;;;;6208009;23;20361;-80
2022/12/05 18:29:36;;;;;;;7.60;3.60;;;4.50;99.90;;;;;;6201761;23;20187;-80
2022/12/05 18:32:02;;;;;;;5.00;3.60;;;4.50;99.90;;;;;;6202476;23;20260;-80
2022/12/05 18:34:28;;;;;;;4.90;3.57;;;4.50;99.90;;;;;;6200866;23;20553;-82
2022/12/05 18:36:54;;;;;;;4.57;3.70;;;4.50;99.90;;;;;;6208033;23;20137;-81
2022/12/05 18:39:20;;;;;;;10.45;5.88;;;4.50;99.90;;;;;;6205113;23;20197;-83
2022/12/05 18:41:46;;;;;;;5.90;4.87;;;4.50;99.90;;;;;;6207290;23;20160;-80
2022/12/05 18:44:12;;;;;;;13.33;6.17;;;4.50;99.90;;;;;;6211090;23;20148;-80
2022/12/05 18:46:37;;;;;;;10.30;6.23;;;4.50;99.90;;;;;;6209324;23;20169;-84
2022/12/05 18:49:03;;;;;;;10.53;5.30;;;4.70;99.90;;;;;;6205851;23;20152;-83
2022/12/05 18:51:29;;;;;;;13.90;6.20;;;4.70;99.90;;;;;;6208644;23;20181;-80
2022/12/05 18:53:55;;;;;;;197.70;62.20;;;4.70;99.90;;;;;;6208489;23;20161;-84
2022/12/05 18:56:22;;;;;;;50.13;19.90;;;4.70;99.90;;;;;;6210316;23;20997;-84
2022/12/05 18:58:56;;;;;;;28.02;10.55;;;4.70;99.90;;;;;;6204720;23;20380;-83
2022/12/05 19:01:22;;;;;;;36.63;11.88;;;4.80;99.90;;;;;;6209491;23;20142;-81
2022/12/05 19:03:48;;;;;;;17.63;9.77;;;;;;;;;;6234163;23;20207;-79
2022/12/05 19:06:25;;;;;;;17.60;8.60;;;4.90;99.90;;;;;;6210535;23;20372;-81
2022/12/05 19:08:55;;;;;;;13.85;8.57;;;4.90;99.90;;;;;;6217362;23;20191;-82
2022/12/05 19:11:21;;;;;;;9.00;5.43;;;5.00;99.90;;;;;;6208100;23;20173;-79
2022/12/05 19:13:47;;;;;;;10.05;6.20;;;5.00;99.90;;;;;;6210970;23;20538;-83
2022/12/05 19:16:15;;;;;;;30.23;15.27;;;4.80;99.90;;;;;;6212703;23;20181;-82
2022/12/05 19:18:41;;;;;;;9.00;7.15;;;4.80;99.90;;;;;;6211585;23;20136;-83
2022/12/05 19:21:07;;;;;;;7.20;4.33;;;4.80;99.90;;;;;;6209743;23;20165;-84
2022/12/05 19:23:33;;;;;;;5.60;4.53;;;4.60;99.90;;;;;;6202909;23;20168;-82
2022/12/05 19:26:00;;;;;;;6.53;4.30;;;4.50;99.90;;;;;;6209049;23;20153;-82
2022/12/05 19:28:26;;;;;;;7.20;5.50;;;4.50;99.90;;;;;;6202659;23;20156;-81
2022/12/05 19:30:59;;;;;;;9.43;8.43;;;4.40;99.90;;;;;;6209566;23;20200;-84
2022/12/05 19:33:29;;;;;;;9.90;8.88;;;4.50;99.90;;;;;;6212361;23;20149;-85
2022/12/05 19:35:55;;;;;;;9.50;6.68;;;4.50;99.90;;;;;;6214407;23;20211;-84
2022/12/05 19:38:20;;;;;;;10.17;5.10;;;4.60;99.90;;;;;;6215308;23;20149;-87